Santa Ana, CA (92701)

12:46 PM PST on December 10, 2016 (GMT -0800)
Santa Ana - South Coast Metro | | Change Station

Elev 73 ft 33.72 °N, 117.86 °W | Updated 7 seconds ago

Mostly Cloudy
Mostly Cloudy
63.3 °F
Feels Like 63.3 °F
N
3.1
Wind Variable Wind from West
Gusts 4.0 mph

Today
High -- | Low -- °F
--% Chance of Precip.
Yesterday
High -- | Low -- °F
Precip. -- in
Pressure 30.16 in
Visibility 9.0 miles
Clouds Overcast 2400 ft
Dew Point 57 °F
Humidity 79%
Rainfall 0.00 in
Snow Depth Not available.
6:45 AM 4:43 PM
Waxing Gibbous, 86% visible
METAR KSNA 101953Z 22006KT 9SM OVC024 18/13 A3015 RMK AO2 SLP211 T01780133
Pressure 30.16 in
Visibility 9.0 miles
Clouds Overcast 2400 ft
Dew Point 57 °F
Humidity 79%
Rainfall 0.00 in
Snow Depth Not available.
6:45 AM 4:43 PM
Waxing Gibbous, 86% visible
METAR KSNA 101953Z 22006KT 9SM OVC024 18/13 A3015 RMK AO2 SLP211 T01780133

10-Day Weather Forecast

Almanac

Astronomy

Dec. 10, 2016 Rise Set
Actual Time
Civil Twilight
Nautical Twilight
Astronomical Twilight
Moon
Length of Visible Light
Length of Day
Tomorrow will be .
, % of the Moon is Illuminated

Today's Extremes

State Highs State Lows

Community

WunderPhotos

Upload Photos

1,956,659 photos uploaded!

WunderBlog® & News

Nearby

Air Quality

  Air Quality AQ Index Pollutant
Not available.

Snow Depth

Station Depth Elevation

Earthquake Activity

City Distance Mag. Time & Date
Minimum magnitude displayed is 2.5.

Coastal Water Temperatures

Place Temperature

Stations

Nearby Weather Stations

Station Location Temp. Windchill Dew Point Humidity Wind Precip. Elev Updated Type
                   

Watches & Warnings

There are currently no watches in effect.